CPA315 VHHH-LEMD
Flight info
| Callsign | CPA315 |
|---|---|
| Flight time | N/A |
| Altitude | 34100 |
| Route | BEKOL A461 SHL W22 TEPID W24 OSNOV G586 QP B330 ELKAL W179 IGNAK/K0935S1010 W179 WFX/K0930S1040 W179 OMBON W195 VIDEK/K0922S1070 W195 LAXAL/K0926S1040 W195 IDOPA W197 ANDIM B215 OMGUP/K0913S1100 B215 IBANO G470 AKLAS W192 FKG A368 SARIN/K0906F360 N161 DERAD/K0904F380 N161 GASBI/N0485F380 N161 LEYLA T916 MATAL DCT TABAS DCT REBLO UM11 TBN/N0483F400 UM11 CRM UM688 EKSUK UL852 NEGEM DCT DOLAP DCT VEBAR DCT ELTIB DCT BAXON/N0487F410 DCT LUTOR DCT GEKBA DCT VAMTU DCT KOLON DCT GANGU DCT PADKO DCT DIVKO DCT NILDU DCT NENDA DCT BCN DCT ANTON DCT XIKEN DCT OSLAP DCT SALAS DCT RAMON DCT NEXAS DCT DISVU DCT ADUXO |
| Aircraft | A359/H-SDE2E3GHIJ3J4J5LM1ORWXY/LB1D1 |
Departure
| Time | 2026-04-30 18:24 |
|---|---|
| Airport | Hong Kong International Airport (VHHH) |
Arrival
| Time | N/A |
|---|---|
| Airport | Adolfo Suárez Madrid–Barajas Airport (LEMD) |
| Time | Latitude | Longitude | Altitude | Speed | Heading |
|---|---|---|---|---|---|
| 2026-04-30 18:05 | 22.31389 | 113.92406 | 43 ft | 0 kts | 26° |
| 2026-04-30 18:11 | 22.31383 | 113.92403 | 42 ft | 2 kts | 26° |
| 2026-04-30 18:12 | 22.31330 | 113.92375 | 41 ft | 3 kts | 8° |
| 2026-04-30 18:13 | 22.31299 | 113.92391 | 41 ft | 2 kts | 298° |
| 2026-04-30 18:13 | 22.31282 | 113.92428 | 41 ft | 0 kts | 296° |
| 2026-04-30 18:15 | 22.31341 | 113.92296 | 43 ft | 14 kts | 296° |
| 2026-04-30 18:16 | 22.31467 | 113.92080 | 43 ft | 20 kts | 334° |
| 2026-04-30 18:16 | 22.31590 | 113.91898 | 43 ft | 17 kts | 251° |
| 2026-04-30 18:17 | 22.31550 | 113.91776 | 43 ft | 17 kts | 250° |
| 2026-04-30 18:17 | 22.31510 | 113.91658 | 42 ft | 17 kts | 250° |
| 2026-04-30 18:17 | 22.31428 | 113.91400 | 44 ft | 24 kts | 251° |
| 2026-04-30 18:18 | 22.31373 | 113.91228 | 44 ft | 24 kts | 251° |
| 2026-04-30 18:18 | 22.31318 | 113.91062 | 43 ft | 23 kts | 250° |
| 2026-04-30 18:18 | 22.31265 | 113.90898 | 43 ft | 23 kts | 251° |
| 2026-04-30 18:18 | 22.31214 | 113.90737 | 43 ft | 23 kts | 251° |
| 2026-04-30 18:19 | 22.31162 | 113.90575 | 43 ft | 23 kts | 251° |
| 2026-04-30 18:19 | 22.31111 | 113.90417 | 43 ft | 22 kts | 251° |
| 2026-04-30 18:19 | 22.31061 | 113.90260 | 42 ft | 22 kts | 251° |
| 2026-04-30 18:19 | 22.31011 | 113.90106 | 43 ft | 21 kts | 251° |
| 2026-04-30 18:20 | 22.30963 | 113.89956 | 43 ft | 19 kts | 250° |
| 2026-04-30 18:20 | 22.30941 | 113.89835 | 43 ft | 16 kts | 292° |
| 2026-04-30 18:20 | 22.30962 | 113.89808 | 41 ft | 0 kts | 320° |
| 2026-04-30 18:21 | 22.30963 | 113.89807 | 41 ft | 2 kts | 321° |
| 2026-04-30 18:21 | 22.31013 | 113.89782 | 43 ft | 12 kts | 339° |
| 2026-04-30 18:21 | 22.31086 | 113.89786 | 42 ft | 10 kts | 53° |
| 2026-04-30 18:21 | 22.31105 | 113.89834 | 42 ft | 0 kts | 69° |
| 2026-04-30 18:23 | 22.31106 | 113.89835 | 42 ft | 3 kts | 69° |
| 2026-04-30 18:23 | 22.31169 | 113.90026 | 43 ft | 54 kts | 71° |
| 2026-04-30 18:23 | 22.31350 | 113.90586 | 41 ft | 103 kts | 70° |
| 2026-04-30 18:23 | 22.31633 | 113.91464 | 45 ft | 144 kts | 70° |
| 2026-04-30 18:24 | 22.32327 | 113.93660 | 632 ft | 160 kts | 72° |
| 2026-04-30 18:24 | 22.32661 | 113.94820 | 990 ft | 162 kts | 73° |
| 2026-04-30 18:24 | 22.32993 | 113.95989 | 1302 ft | 169 kts | 73° |
| 2026-04-30 18:25 | 22.33332 | 113.97270 | 1460 ft | 182 kts | 77° |
| 2026-04-30 18:25 | 22.33797 | 114.00140 | 1850 ft | 210 kts | 88° |
| 2026-04-30 18:25 | 22.33611 | 114.01746 | 2145 ft | 219 kts | 107° |
| 2026-04-30 18:26 | 22.31828 | 114.04402 | 3056 ft | 225 kts | 144° |
| 2026-04-30 18:26 | 22.30505 | 114.05310 | 3424 ft | 233 kts | 149° |
| 2026-04-30 18:26 | 22.29092 | 114.06211 | 3833 ft | 237 kts | 149° |
| 2026-04-30 18:27 | 22.26228 | 114.08051 | 4790 ft | 241 kts | 150° |
| 2026-04-30 18:27 | 22.24647 | 114.08659 | 5211 ft | 243 kts | 174° |
| 2026-04-30 18:28 | 22.21143 | 114.08699 | 5798 ft | 264 kts | 182° |
| 2026-04-30 18:28 | 22.19288 | 114.08708 | 6202 ft | 269 kts | 176° |
| 2026-04-30 18:28 | 22.16193 | 114.10888 | 6960 ft | 288 kts | 117° |
| 2026-04-30 18:29 | 22.15679 | 114.12983 | 7351 ft | 294 kts | 96° |
| 2026-04-30 18:29 | 22.15438 | 114.18482 | 7975 ft | 303 kts | 94° |
| 2026-04-30 18:30 | 22.15223 | 114.22331 | 7984 ft | 304 kts | 95° |
| 2026-04-30 18:30 | 22.15524 | 114.27518 | 7988 ft | 304 kts | 77° |
| 2026-04-30 18:31 | 22.16006 | 114.29715 | 7984 ft | 304 kts | 76° |
| 2026-04-30 18:31 | 22.16985 | 114.34189 | 7985 ft | 304 kts | 77° |